sensor_id;sensor_type;location;lat;lon;timestamp;P1;durP1;ratioP1;P2;durP2;ratioP2
38089;SDS011;23904;52.322;10.232;2022-12-18T00:01:05;27.13;;;12.48;;
38089;SDS011;23904;52.322;10.232;2022-12-18T00:03:40;29.73;;;12.57;;
38089;SDS011;23904;52.322;10.232;2022-12-18T00:06:05;35.63;;;13.25;;
38089;SDS011;23904;52.322;10.232;2022-12-18T00:08:31;31.42;;;14.07;;
38089;SDS011;23904;52.322;10.232;2022-12-18T00:11:02;34.10;;;15.02;;
38089;SDS011;23904;52.322;10.232;2022-12-18T00:13:33;29.30;;;14.73;;
38089;SDS011;23904;52.322;10.232;2022-12-18T00:16:04;34.90;;;14.65;;
38089;SDS011;23904;52.322;10.232;2022-12-18T00:18:32;30.15;;;15.15;;
38089;SDS011;23904;52.322;10.232;2022-12-18T00:20:59;28.23;;;14.68;;
38089;SDS011;23904;52.322;10.232;2022-12-18T00:23:27;26.63;;;14.88;;
38089;SDS011;23904;52.322;10.232;2022-12-18T00:25:54;30.35;;;14.38;;
38089;SDS011;23904;52.322;10.232;2022-12-18T00:28:20;29.40;;;14.82;;
38089;SDS011;23904;52.322;10.232;2022-12-18T00:30:46;30.33;;;15.15;;
38089;SDS011;23904;52.322;10.232;2022-12-18T00:33:11;29.52;;;15.20;;
38089;SDS011;23904;52.322;10.232;2022-12-18T00:35:37;30.38;;;15.27;;
38089;SDS011;23904;52.322;10.232;2022-12-18T00:38:03;36.05;;;17.13;;
38089;SDS011;23904;52.322;10.232;2022-12-18T00:40:30;39.28;;;16.92;;
38089;SDS011;23904;52.322;10.232;2022-12-18T00:42:55;29.08;;;14.60;;
38089;SDS011;23904;52.322;10.232;2022-12-18T00:45:25;33.00;;;15.55;;
38089;SDS011;23904;52.322;10.232;2022-12-18T00:47:54;29.52;;;15.18;;
38089;SDS011;23904;52.322;10.232;2022-12-18T00:50:20;33.53;;;15.10;;
38089;SDS011;23904;52.322;10.232;2022-12-18T00:52:47;29.77;;;15.30;;
38089;SDS011;23904;52.322;10.232;2022-12-18T00:55:13;29.85;;;15.27;;
38089;SDS011;23904;52.322;10.232;2022-12-18T00:57:39;34.67;;;16.13;;
38089;SDS011;23904;52.322;10.232;2022-12-18T01:00:06;30.52;;;14.68;;
38089;SDS011;23904;52.322;10.232;2022-12-18T01:02:34;31.00;;;15.73;;
38089;SDS011;23904;52.322;10.232;2022-12-18T01:05:00;34.60;;;15.48;;
38089;SDS011;23904;52.322;10.232;2022-12-18T01:07:26;30.67;;;15.73;;
38089;SDS011;23904;52.322;10.232;2022-12-18T01:09:51;37.08;;;17.48;;
38089;SDS011;23904;52.322;10.232;2022-12-18T01:12:17;39.80;;;17.38;;
38089;SDS011;23904;52.322;10.232;2022-12-18T01:14:43;29.65;;;15.15;;
38089;SDS011;23904;52.322;10.232;2022-12-18T01:17:08;38.28;;;16.10;;
38089;SDS011;23904;52.322;10.232;2022-12-18T01:19:34;32.33;;;15.07;;
38089;SDS011;23904;52.322;10.232;2022-12-18T01:22:00;31.27;;;15.32;;
38089;SDS011;23904;52.322;10.232;2022-12-18T01:24:25;29.48;;;14.77;;
38089;SDS011;23904;52.322;10.232;2022-12-18T01:26:51;35.42;;;15.27;;
38089;SDS011;23904;52.322;10.232;2022-12-18T01:29:17;30.35;;;16.73;;
38089;SDS011;23904;52.322;10.232;2022-12-18T01:31:42;35.45;;;17.48;;
38089;SDS011;23904;52.322;10.232;2022-12-18T01:34:08;35.22;;;18.45;;
38089;SDS011;23904;52.322;10.232;2022-12-18T01:36:35;33.83;;;15.70;;
38089;SDS011;23904;52.322;10.232;2022-12-18T01:39:04;28.30;;;15.15;;
38089;SDS011;23904;52.322;10.232;2022-12-18T01:41:38;30.58;;;14.88;;
38089;SDS011;23904;52.322;10.232;2022-12-18T01:50:17;39.22;;;15.57;;
38089;SDS011;23904;52.322;10.232;2022-12-18T01:53:10;28.40;;;14.75;;
38089;SDS011;23904;52.322;10.232;2022-12-18T01:55:41;34.63;;;15.80;;
38089;SDS011;23904;52.322;10.232;2022-12-18T01:58:12;29.70;;;15.30;;
38089;SDS011;23904;52.322;10.232;2022-12-18T02:00:38;28.00;;;14.65;;
38089;SDS011;23904;52.322;10.232;2022-12-18T02:03:03;27.35;;;14.85;;
38089;SDS011;23904;52.322;10.232;2022-12-18T02:05:34;28.65;;;14.98;;
38089;SDS011;23904;52.322;10.232;2022-12-18T02:11:18;34.13;;;16.92;;
38089;SDS011;23904;52.322;10.232;2022-12-18T02:14:15;31.25;;;13.95;;
38089;SDS011;23904;52.322;10.232;2022-12-18T02:28:51;28.63;;;15.60;;
38089;SDS011;23904;52.322;10.232;2022-12-18T02:31:52;33.83;;;16.13;;
38089;SDS011;23904;52.322;10.232;2022-12-18T02:34:26;30.40;;;16.25;;
38089;SDS011;23904;52.322;10.232;2022-12-18T02:36:57;29.58;;;15.13;;
38089;SDS011;23904;52.322;10.232;2022-12-18T02:39:26;32.47;;;14.48;;
38089;SDS011;23904;52.322;10.232;2022-12-18T02:41:54;29.95;;;14.93;;
38089;SDS011;23904;52.322;10.232;2022-12-18T02:44:20;28.58;;;15.07;;
38089;SDS011;23904;52.322;10.232;2022-12-18T02:46:49;29.30;;;15.73;;
38089;SDS011;23904;52.322;10.232;2022-12-18T02:55:57;28.90;;;14.18;;
38089;SDS011;23904;52.322;10.232;2022-12-18T02:58:33;29.77;;;13.98;;
38089;SDS011;23904;52.322;10.232;2022-12-18T03:03:55;26.30;;;14.10;;
38089;SDS011;23904;52.322;10.232;2022-12-18T03:06:28;31.15;;;14.45;;
38089;SDS011;23904;52.322;10.232;2022-12-18T03:11:58;35.05;;;14.88;;
38089;SDS011;23904;52.322;10.232;2022-12-18T03:17:42;32.35;;;15.85;;
38089;SDS011;23904;52.322;10.232;2022-12-18T03:20:17;35.33;;;14.95;;
38089;SDS011;23904;52.322;10.232;2022-12-18T03:22:47;30.35;;;13.95;;
38089;SDS011;23904;52.322;10.232;2022-12-18T03:25:22;25.45;;;14.65;;
38089;SDS011;23904;52.322;10.232;2022-12-18T03:27:51;28.63;;;14.90;;
38089;SDS011;23904;52.322;10.232;2022-12-18T03:30:21;31.52;;;15.50;;
38089;SDS011;23904;52.322;10.232;2022-12-18T03:32:48;32.03;;;15.30;;
38089;SDS011;23904;52.322;10.232;2022-12-18T03:35:23;34.17;;;16.20;;
38089;SDS011;23904;52.322;10.232;2022-12-18T03:37:54;25.05;;;11.13;;
38089;SDS011;23904;52.322;10.232;2022-12-18T03:40:21;28.80;;;13.50;;
38089;SDS011;23904;52.322;10.232;2022-12-18T03:43:03;28.80;;;14.32;;
38089;SDS011;23904;52.322;10.232;2022-12-18T03:45:44;29.55;;;14.65;;
38089;SDS011;23904;52.322;10.232;2022-12-18T03:48:29;35.28;;;16.77;;
38089;SDS011;23904;52.322;10.232;2022-12-18T03:51:07;32.03;;;16.02;;
38089;SDS011;23904;52.322;10.232;2022-12-18T03:53:59;32.42;;;15.65;;
38089;SDS011;23904;52.322;10.232;2022-12-18T03:56:33;30.63;;;14.43;;
38089;SDS011;23904;52.322;10.232;2022-12-18T03:59:11;28.55;;;13.88;;
38089;SDS011;23904;52.322;10.232;2022-12-18T04:01:39;32.63;;;16.30;;
38089;SDS011;23904;52.322;10.232;2022-12-18T04:04:11;31.05;;;15.52;;
38089;SDS011;23904;52.322;10.232;2022-12-18T04:06:38;28.58;;;16.15;;
38089;SDS011;23904;52.322;10.232;2022-12-18T04:09:06;32.80;;;16.13;;
38089;SDS011;23904;52.322;10.232;2022-12-18T04:11:32;37.67;;;16.35;;
38089;SDS011;23904;52.322;10.232;2022-12-18T04:13:58;36.83;;;16.83;;
38089;SDS011;23904;52.322;10.232;2022-12-18T04:16:24;37.80;;;16.90;;
38089;SDS011;23904;52.322;10.232;2022-12-18T04:18:53;40.47;;;16.73;;
38089;SDS011;23904;52.322;10.232;2022-12-18T04:21:19;32.67;;;16.70;;
38089;SDS011;23904;52.322;10.232;2022-12-18T04:23:45;45.88;;;18.30;;
38089;SDS011;23904;52.322;10.232;2022-12-18T04:26:11;32.65;;;16.15;;
38089;SDS011;23904;52.322;10.232;2022-12-18T04:28:37;44.78;;;17.77;;
38089;SDS011;23904;52.322;10.232;2022-12-18T04:31:02;29.70;;;15.85;;
38089;SDS011;23904;52.322;10.232;2022-12-18T04:33:28;34.25;;;16.95;;
38089;SDS011;23904;52.322;10.232;2022-12-18T04:35:54;30.17;;;17.15;;
38089;SDS011;23904;52.322;10.232;2022-12-18T04:38:19;34.78;;;17.58;;
38089;SDS011;23904;52.322;10.232;2022-12-18T04:40:45;37.65;;;17.98;;
38089;SDS011;23904;52.322;10.232;2022-12-18T04:43:11;34.40;;;16.40;;
38089;SDS011;23904;52.322;10.232;2022-12-18T04:45:36;35.92;;;19.20;;
38089;SDS011;23904;52.322;10.232;2022-12-18T04:48:02;38.10;;;17.77;;
38089;SDS011;23904;52.322;10.232;2022-12-18T04:50:29;37.15;;;19.88;;
38089;SDS011;23904;52.322;10.232;2022-12-18T04:52:55;42.40;;;20.42;;
38089;SDS011;23904;52.322;10.232;2022-12-18T04:55:21;49.55;;;21.73;;
38089;SDS011;23904;52.322;10.232;2022-12-18T04:57:47;44.55;;;21.45;;
38089;SDS011;23904;52.322;10.232;2022-12-18T05:00:13;46.65;;;21.63;;
38089;SDS011;23904;52.322;10.232;2022-12-18T05:02:39;39.53;;;21.10;;
38089;SDS011;23904;52.322;10.232;2022-12-18T05:05:05;56.78;;;23.33;;
38089;SDS011;23904;52.322;10.232;2022-12-18T05:07:32;51.35;;;23.67;;
38089;SDS011;23904;52.322;10.232;2022-12-18T05:09:57;54.65;;;23.23;;
38089;SDS011;23904;52.322;10.232;2022-12-18T05:12:23;58.58;;;23.38;;
38089;SDS011;23904;52.322;10.232;2022-12-18T05:14:49;48.38;;;22.50;;
38089;SDS011;23904;52.322;10.232;2022-12-18T05:17:14;39.50;;;20.13;;
38089;SDS011;23904;52.322;10.232;2022-12-18T05:19:40;41.55;;;19.02;;
38089;SDS011;23904;52.322;10.232;2022-12-18T05:22:06;41.88;;;19.27;;
38089;SDS011;23904;52.322;10.232;2022-12-18T05:24:31;39.75;;;18.70;;
38089;SDS011;23904;52.322;10.232;2022-12-18T05:26:57;37.60;;;17.90;;
38089;SDS011;23904;52.322;10.232;2022-12-18T05:29:23;37.78;;;18.98;;
38089;SDS011;23904;52.322;10.232;2022-12-18T05:31:48;36.30;;;17.58;;
38089;SDS011;23904;52.322;10.232;2022-12-18T05:34:14;37.25;;;19.23;;
38089;SDS011;23904;52.322;10.232;2022-12-18T05:36:40;38.17;;;18.02;;
38089;SDS011;23904;52.322;10.232;2022-12-18T05:39:06;33.80;;;16.98;;
38089;SDS011;23904;52.322;10.232;2022-12-18T05:41:31;35.45;;;18.23;;
38089;SDS011;23904;52.322;10.232;2022-12-18T05:43:57;37.65;;;18.08;;
38089;SDS011;23904;52.322;10.232;2022-12-18T05:46:23;40.72;;;19.27;;
38089;SDS011;23904;52.322;10.232;2022-12-18T05:48:49;40.60;;;19.17;;
38089;SDS011;23904;52.322;10.232;2022-12-18T05:51:16;35.58;;;18.13;;
38089;SDS011;23904;52.322;10.232;2022-12-18T05:53:45;37.53;;;18.88;;
38089;SDS011;23904;52.322;10.232;2022-12-18T05:56:14;39.60;;;18.85;;
38089;SDS011;23904;52.322;10.232;2022-12-18T05:58:43;40.38;;;19.13;;
38089;SDS011;23904;52.322;10.232;2022-12-18T06:01:13;42.85;;;18.98;;
38089;SDS011;23904;52.322;10.232;2022-12-18T06:03:46;32.78;;;17.58;;
38089;SDS011;23904;52.322;10.232;2022-12-18T06:06:13;38.42;;;18.67;;
38089;SDS011;23904;52.322;10.232;2022-12-18T06:08:47;43.38;;;19.75;;
38089;SDS011;23904;52.322;10.232;2022-12-18T06:11:16;37.83;;;19.17;;
38089;SDS011;23904;52.322;10.232;2022-12-18T06:13:45;39.45;;;19.58;;
38089;SDS011;23904;52.322;10.232;2022-12-18T06:16:11;38.33;;;19.58;;
38089;SDS011;23904;52.322;10.232;2022-12-18T06:18:37;33.45;;;18.27;;
38089;SDS011;23904;52.322;10.232;2022-12-18T06:21:03;38.97;;;19.48;;
38089;SDS011;23904;52.322;10.232;2022-12-18T06:23:29;40.97;;;17.58;;
38089;SDS011;23904;52.322;10.232;2022-12-18T06:25:54;38.83;;;19.20;;
38089;SDS011;23904;52.322;10.232;2022-12-18T06:28:20;31.27;;;16.92;;
38089;SDS011;23904;52.322;10.232;2022-12-18T06:30:46;37.20;;;18.63;;
38089;SDS011;23904;52.322;10.232;2022-12-18T06:33:13;38.92;;;17.98;;
38089;SDS011;23904;52.322;10.232;2022-12-18T06:35:40;38.92;;;18.65;;
38089;SDS011;23904;52.322;10.232;2022-12-18T06:38:06;36.65;;;18.88;;
38089;SDS011;23904;52.322;10.232;2022-12-18T06:40:32;31.63;;;16.67;;
38089;SDS011;23904;52.322;10.232;2022-12-18T06:42:58;38.10;;;18.92;;
38089;SDS011;23904;52.322;10.232;2022-12-18T06:45:24;38.25;;;18.40;;
38089;SDS011;23904;52.322;10.232;2022-12-18T06:47:50;30.88;;;17.08;;
38089;SDS011;23904;52.322;10.232;2022-12-18T06:50:15;35.85;;;18.17;;
38089;SDS011;23904;52.322;10.232;2022-12-18T06:52:41;36.55;;;17.63;;
38089;SDS011;23904;52.322;10.232;2022-12-18T06:55:09;33.00;;;16.95;;
38089;SDS011;23904;52.322;10.232;2022-12-18T06:57:36;33.63;;;17.05;;
38089;SDS011;23904;52.322;10.232;2022-12-18T07:00:03;33.13;;;17.60;;
38089;SDS011;23904;52.322;10.232;2022-12-18T07:02:31;41.47;;;17.85;;
38089;SDS011;23904;52.322;10.232;2022-12-18T07:04:57;38.53;;;17.63;;
38089;SDS011;23904;52.322;10.232;2022-12-18T07:07:23;31.60;;;16.65;;
38089;SDS011;23904;52.322;10.232;2022-12-18T07:09:49;33.90;;;17.20;;
38089;SDS011;23904;52.322;10.232;2022-12-18T07:12:15;41.90;;;18.88;;
38089;SDS011;23904;52.322;10.232;2022-12-18T07:14:41;41.08;;;18.67;;
38089;SDS011;23904;52.322;10.232;2022-12-18T07:17:06;38.97;;;18.05;;
38089;SDS011;23904;52.322;10.232;2022-12-18T07:19:32;41.63;;;19.00;;
38089;SDS011;23904;52.322;10.232;2022-12-18T07:21:58;32.35;;;16.00;;
38089;SDS011;23904;52.322;10.232;2022-12-18T07:24:24;31.45;;;15.68;;
38089;SDS011;23904;52.322;10.232;2022-12-18T07:26:50;33.20;;;16.80;;
38089;SDS011;23904;52.322;10.232;2022-12-18T07:29:15;31.85;;;14.95;;
38089;SDS011;23904;52.322;10.232;2022-12-18T07:31:41;32.63;;;16.85;;
38089;SDS011;23904;52.322;10.232;2022-12-18T07:34:11;33.17;;;16.85;;
38089;SDS011;23904;52.322;10.232;2022-12-18T07:36:38;31.75;;;16.65;;
38089;SDS011;23904;52.322;10.232;2022-12-18T07:39:04;33.28;;;16.75;;
38089;SDS011;23904;52.322;10.232;2022-12-18T07:41:29;35.17;;;18.15;;
38089;SDS011;23904;52.322;10.232;2022-12-18T07:43:55;36.47;;;16.77;;
38089;SDS011;23904;52.322;10.232;2022-12-18T07:46:20;33.33;;;16.98;;
38089;SDS011;23904;52.322;10.232;2022-12-18T07:48:47;39.78;;;18.85;;
38089;SDS011;23904;52.322;10.232;2022-12-18T07:51:13;35.85;;;18.60;;
38089;SDS011;23904;52.322;10.232;2022-12-18T07:53:39;41.35;;;19.45;;
38089;SDS011;23904;52.322;10.232;2022-12-18T07:56:06;43.33;;;21.25;;
38089;SDS011;23904;52.322;10.232;2022-12-18T07:58:35;45.80;;;21.55;;
38089;SDS011;23904;52.322;10.232;2022-12-18T08:01:02;44.47;;;20.45;;
38089;SDS011;23904;52.322;10.232;2022-12-18T08:03:30;55.72;;;23.95;;
38089;SDS011;23904;52.322;10.232;2022-12-18T08:06:00;40.97;;;21.27;;
38089;SDS011;23904;52.322;10.232;2022-12-18T08:08:27;44.13;;;19.17;;
38089;SDS011;23904;52.322;10.232;2022-12-18T08:10:53;38.90;;;18.73;;
38089;SDS011;23904;52.322;10.232;2022-12-18T08:13:19;40.15;;;18.50;;
38089;SDS011;23904;52.322;10.232;2022-12-18T08:15:45;39.33;;;18.85;;
38089;SDS011;23904;52.322;10.232;2022-12-18T08:18:11;39.97;;;19.33;;
38089;SDS011;23904;52.322;10.232;2022-12-18T08:20:37;49.20;;;20.42;;
38089;SDS011;23904;52.322;10.232;2022-12-18T08:23:02;46.38;;;21.23;;
38089;SDS011;23904;52.322;10.232;2022-12-18T08:25:28;38.45;;;18.45;;
38089;SDS011;23904;52.322;10.232;2022-12-18T08:27:54;44.17;;;22.80;;
38089;SDS011;23904;52.322;10.232;2022-12-18T08:30:21;44.25;;;18.45;;
38089;SDS011;23904;52.322;10.232;2022-12-18T08:32:47;44.47;;;21.58;;
38089;SDS011;23904;52.322;10.232;2022-12-18T08:35:17;40.58;;;18.85;;
38089;SDS011;23904;52.322;10.232;2022-12-18T08:37:43;41.72;;;19.00;;
38089;SDS011;23904;52.322;10.232;2022-12-18T08:40:09;38.20;;;18.27;;
38089;SDS011;23904;52.322;10.232;2022-12-18T08:42:37;40.67;;;18.83;;
38089;SDS011;23904;52.322;10.232;2022-12-18T08:45:22;47.75;;;19.20;;
38089;SDS011;23904;52.322;10.232;2022-12-18T08:47:48;46.53;;;20.73;;
38089;SDS011;23904;52.322;10.232;2022-12-18T08:50:16;42.08;;;19.40;;
38089;SDS011;23904;52.322;10.232;2022-12-18T08:52:42;46.35;;;19.70;;
38089;SDS011;23904;52.322;10.232;2022-12-18T08:55:08;36.22;;;18.17;;
38089;SDS011;23904;52.322;10.232;2022-12-18T08:57:34;49.40;;;21.52;;
38089;SDS011;23904;52.322;10.232;2022-12-18T09:00:00;45.63;;;20.20;;
38089;SDS011;23904;52.322;10.232;2022-12-18T09:02:25;41.83;;;19.38;;
38089;SDS011;23904;52.322;10.232;2022-12-18T09:04:51;42.70;;;22.02;;
38089;SDS011;23904;52.322;10.232;2022-12-18T09:07:17;46.28;;;20.20;;
38089;SDS011;23904;52.322;10.232;2022-12-18T09:09:42;37.65;;;20.10;;
38089;SDS011;23904;52.322;10.232;2022-12-18T09:12:08;41.50;;;19.35;;
38089;SDS011;23904;52.322;10.232;2022-12-18T09:14:34;40.10;;;19.08;;
38089;SDS011;23904;52.322;10.232;2022-12-18T09:17:00;41.35;;;18.80;;
38089;SDS011;23904;52.322;10.232;2022-12-18T09:19:26;35.42;;;17.65;;
38089;SDS011;23904;52.322;10.232;2022-12-18T09:21:51;35.45;;;18.25;;
38089;SDS011;23904;52.322;10.232;2022-12-18T09:24:17;39.95;;;18.13;;
38089;SDS011;23904;52.322;10.232;2022-12-18T09:26:43;37.83;;;19.15;;
38089;SDS011;23904;52.322;10.232;2022-12-18T09:29:09;40.90;;;19.10;;
38089;SDS011;23904;52.322;10.232;2022-12-18T09:31:35;42.28;;;17.70;;
38089;SDS011;23904;52.322;10.232;2022-12-18T09:34:04;40.65;;;18.63;;
38089;SDS011;23904;52.322;10.232;2022-12-18T09:36:30;44.50;;;18.63;;
38089;SDS011;23904;52.322;10.232;2022-12-18T09:38:56;43.80;;;19.23;;
38089;SDS011;23904;52.322;10.232;2022-12-18T09:44:23;35.33;;;16.65;;
38089;SDS011;23904;52.322;10.232;2022-12-18T09:46:52;46.63;;;19.60;;
38089;SDS011;23904;52.322;10.232;2022-12-18T09:49:27;43.55;;;18.58;;
38089;SDS011;23904;52.322;10.232;2022-12-18T09:51:57;36.20;;;18.60;;
38089;SDS011;23904;52.322;10.232;2022-12-18T09:54:56;39.35;;;18.05;;
38089;SDS011;23904;52.322;10.232;2022-12-18T09:57:35;39.47;;;16.90;;
38089;SDS011;23904;52.322;10.232;2022-12-18T10:00:18;33.30;;;16.30;;
38089;SDS011;23904;52.322;10.232;2022-12-18T10:02:47;29.85;;;16.33;;
38089;SDS011;23904;52.322;10.232;2022-12-18T10:05:15;33.40;;;17.20;;
38089;SDS011;23904;52.322;10.232;2022-12-18T10:08:00;37.17;;;17.75;;
38089;SDS011;23904;52.322;10.232;2022-12-18T10:19:20;33.17;;;17.10;;
38089;SDS011;23904;52.322;10.232;2022-12-18T10:24:53;28.90;;;16.50;;
38089;SDS011;23904;52.322;10.232;2022-12-18T10:27:29;38.58;;;17.70;;
38089;SDS011;23904;52.322;10.232;2022-12-18T10:29:55;33.80;;;16.15;;
38089;SDS011;23904;52.322;10.232;2022-12-18T10:32:27;32.55;;;15.90;;
38089;SDS011;23904;52.322;10.232;2022-12-18T10:34:55;37.75;;;16.95;;
38089;SDS011;23904;52.322;10.232;2022-12-18T10:37:24;32.78;;;15.77;;
38089;SDS011;23904;52.322;10.232;2022-12-18T10:40:13;35.30;;;15.63;;
38089;SDS011;23904;52.322;10.232;2022-12-18T10:42:40;37.03;;;17.25;;
38089;SDS011;23904;52.322;10.232;2022-12-18T10:47:41;42.85;;;18.00;;
38089;SDS011;23904;52.322;10.232;2022-12-18T10:50:32;35.22;;;16.60;;
38089;SDS011;23904;52.322;10.232;2022-12-18T10:53:03;32.25;;;16.27;;
38089;SDS011;23904;52.322;10.232;2022-12-18T10:55:31;36.97;;;16.95;;
38089;SDS011;23904;52.322;10.232;2022-12-18T10:58:26;33.53;;;16.35;;
38089;SDS011;23904;52.322;10.232;2022-12-18T11:03:37;31.15;;;15.82;;
38089;SDS011;23904;52.322;10.232;2022-12-18T11:06:12;38.22;;;16.73;;
38089;SDS011;23904;52.322;10.232;2022-12-18T11:08:44;31.50;;;17.23;;
38089;SDS011;23904;52.322;10.232;2022-12-18T11:11:26;39.95;;;16.48;;
38089;SDS011;23904;52.322;10.232;2022-12-18T11:16:36;39.42;;;18.92;;
38089;SDS011;23904;52.322;10.232;2022-12-18T11:19:21;45.08;;;19.35;;
38089;SDS011;23904;52.322;10.232;2022-12-18T11:21:56;35.60;;;16.98;;
38089;SDS011;23904;52.322;10.232;2022-12-18T11:26:53;36.90;;;18.23;;
38089;SDS011;23904;52.322;10.232;2022-12-18T11:29:24;38.17;;;18.17;;
38089;SDS011;23904;52.322;10.232;2022-12-18T11:35:25;33.10;;;16.50;;
38089;SDS011;23904;52.322;10.232;2022-12-18T11:37:59;34.17;;;15.60;;
38089;SDS011;23904;52.322;10.232;2022-12-18T11:40:38;35.33;;;15.48;;
38089;SDS011;23904;52.322;10.232;2022-12-18T11:43:13;35.33;;;15.98;;
38089;SDS011;23904;52.322;10.232;2022-12-18T11:45:48;32.80;;;15.68;;
38089;SDS011;23904;52.322;10.232;2022-12-18T11:50:57;31.90;;;15.70;;
38089;SDS011;23904;52.322;10.232;2022-12-18T11:53:26;31.73;;;15.85;;
38089;SDS011;23904;52.322;10.232;2022-12-18T12:07:43;25.90;;;14.30;;
38089;SDS011;23904;52.322;10.232;2022-12-18T12:15:58;27.30;;;14.68;;
38089;SDS011;23904;52.322;10.232;2022-12-18T12:22:09;28.38;;;14.30;;
38089;SDS011;23904;52.322;10.232;2022-12-18T12:24:39;29.60;;;14.93;;
38089;SDS011;23904;52.322;10.232;2022-12-18T12:27:34;28.75;;;15.57;;
38089;SDS011;23904;52.322;10.232;2022-12-18T12:30:25;32.00;;;16.83;;
38089;SDS011;23904;52.322;10.232;2022-12-18T12:36:21;31.13;;;16.35;;
38089;SDS011;23904;52.322;10.232;2022-12-18T12:39:11;35.22;;;16.95;;
38089;SDS011;23904;52.322;10.232;2022-12-18T12:41:44;26.58;;;14.07;;
38089;SDS011;23904;52.322;10.232;2022-12-18T12:44:38;31.23;;;15.63;;
38089;SDS011;23904;52.322;10.232;2022-12-18T12:47:20;34.50;;;15.82;;
38089;SDS011;23904;52.322;10.232;2022-12-18T12:49:58;31.08;;;15.27;;
38089;SDS011;23904;52.322;10.232;2022-12-18T12:52:30;32.45;;;14.27;;
38089;SDS011;23904;52.322;10.232;2022-12-18T12:55:05;30.90;;;15.68;;
38089;SDS011;23904;52.322;10.232;2022-12-18T12:57:40;32.13;;;15.05;;
38089;SDS011;23904;52.322;10.232;2022-12-18T13:00:14;32.30;;;16.20;;
38089;SDS011;23904;52.322;10.232;2022-12-18T13:02:58;29.48;;;15.65;;
38089;SDS011;23904;52.322;10.232;2022-12-18T13:06:13;33.17;;;15.48;;
38089;SDS011;23904;52.322;10.232;2022-12-18T13:08:56;36.70;;;17.17;;
38089;SDS011;23904;52.322;10.232;2022-12-18T13:11:32;35.15;;;16.40;;
38089;SDS011;23904;52.322;10.232;2022-12-18T13:14:30;35.10;;;15.90;;
38089;SDS011;23904;52.322;10.232;2022-12-18T13:17:15;33.08;;;15.88;;
38089;SDS011;23904;52.322;10.232;2022-12-18T13:19:44;29.48;;;14.90;;
38089;SDS011;23904;52.322;10.232;2022-12-18T13:22:21;27.00;;;13.30;;
38089;SDS011;23904;52.322;10.232;2022-12-18T13:24:49;28.52;;;15.43;;
38089;SDS011;23904;52.322;10.232;2022-12-18T13:41:00;28.85;;;13.85;;
38089;SDS011;23904;52.322;10.232;2022-12-18T13:46:17;27.80;;;12.95;;
38089;SDS011;23904;52.322;10.232;2022-12-18T13:51:39;27.83;;;13.07;;
38089;SDS011;23904;52.322;10.232;2022-12-18T13:56:49;41.38;;;13.18;;
38089;SDS011;23904;52.322;10.232;2022-12-18T13:59:22;27.50;;;13.23;;
38089;SDS011;23904;52.322;10.232;2022-12-18T14:06:55;26.17;;;12.48;;
38089;SDS011;23904;52.322;10.232;2022-12-18T14:09:45;28.05;;;14.95;;
38089;SDS011;23904;52.322;10.232;2022-12-18T14:12:24;30.65;;;14.15;;
38089;SDS011;23904;52.322;10.232;2022-12-18T14:15:23;27.45;;;14.27;;
38089;SDS011;23904;52.322;10.232;2022-12-18T14:20:41;38.75;;;16.52;;
38089;SDS011;23904;52.322;10.232;2022-12-18T14:25:57;35.80;;;16.90;;
38089;SDS011;23904;52.322;10.232;2022-12-18T14:28:23;34.28;;;15.65;;
38089;SDS011;23904;52.322;10.232;2022-12-18T14:30:51;29.90;;;14.38;;
38089;SDS011;23904;52.322;10.232;2022-12-18T14:33:18;29.00;;;14.68;;
38089;SDS011;23904;52.322;10.232;2022-12-18T14:36:00;30.17;;;15.40;;
38089;SDS011;23904;52.322;10.232;2022-12-18T14:38:33;31.30;;;15.05;;
38089;SDS011;23904;52.322;10.232;2022-12-18T14:41:05;35.58;;;15.82;;
38089;SDS011;23904;52.322;10.232;2022-12-18T14:43:36;30.90;;;14.48;;
38089;SDS011;23904;52.322;10.232;2022-12-18T14:46:04;27.35;;;14.85;;
38089;SDS011;23904;52.322;10.232;2022-12-18T14:48:57;35.60;;;16.83;;
38089;SDS011;23904;52.322;10.232;2022-12-18T14:51:30;34.90;;;15.32;;
38089;SDS011;23904;52.322;10.232;2022-12-18T14:54:02;31.88;;;15.43;;
38089;SDS011;23904;52.322;10.232;2022-12-18T14:56:35;30.60;;;15.43;;
38089;SDS011;23904;52.322;10.232;2022-12-18T14:59:15;35.30;;;15.43;;
38089;SDS011;23904;52.322;10.232;2022-12-18T15:01:47;34.63;;;16.60;;
38089;SDS011;23904;52.322;10.232;2022-12-18T15:09:33;33.28;;;16.95;;
38089;SDS011;23904;52.322;10.232;2022-12-18T15:12:00;36.22;;;17.10;;
38089;SDS011;23904;52.322;10.232;2022-12-18T15:16:57;31.85;;;16.45;;
38089;SDS011;23904;52.322;10.232;2022-12-18T15:19:32;34.15;;;16.52;;
38089;SDS011;23904;52.322;10.232;2022-12-18T15:22:13;38.00;;;17.35;;
38089;SDS011;23904;52.322;10.232;2022-12-18T15:24:51;35.00;;;17.58;;
38089;SDS011;23904;52.322;10.232;2022-12-18T15:27:36;37.95;;;17.92;;
38089;SDS011;23904;52.322;10.232;2022-12-18T15:32:36;42.45;;;18.77;;
38089;SDS011;23904;52.322;10.232;2022-12-18T15:37:36;33.08;;;16.48;;
38089;SDS011;23904;52.322;10.232;2022-12-18T15:40:03;27.77;;;15.98;;
38089;SDS011;23904;52.322;10.232;2022-12-18T15:42:29;32.55;;;15.77;;
38089;SDS011;23904;52.322;10.232;2022-12-18T15:45:13;30.25;;;14.60;;
38089;SDS011;23904;52.322;10.232;2022-12-18T15:47:39;31.73;;;16.67;;
38089;SDS011;23904;52.322;10.232;2022-12-18T15:50:06;38.53;;;16.42;;
38089;SDS011;23904;52.322;10.232;2022-12-18T15:52:35;31.52;;;15.80;;
38089;SDS011;23904;52.322;10.232;2022-12-18T15:55:15;29.67;;;15.02;;
38089;SDS011;23904;52.322;10.232;2022-12-18T15:58:03;32.63;;;16.20;;
38089;SDS011;23904;52.322;10.232;2022-12-18T16:00:30;31.38;;;16.10;;
38089;SDS011;23904;52.322;10.232;2022-12-18T16:02:58;30.88;;;15.20;;
38089;SDS011;23904;52.322;10.232;2022-12-18T16:05:23;27.52;;;15.57;;
38089;SDS011;23904;52.322;10.232;2022-12-18T16:07:49;36.72;;;16.40;;
38089;SDS011;23904;52.322;10.232;2022-12-18T16:10:15;31.35;;;16.40;;
38089;SDS011;23904;52.322;10.232;2022-12-18T16:12:41;34.90;;;15.35;;
38089;SDS011;23904;52.322;10.232;2022-12-18T16:15:07;26.67;;;14.00;;
38089;SDS011;23904;52.322;10.232;2022-12-18T16:17:38;29.88;;;15.00;;
38089;SDS011;23904;52.322;10.232;2022-12-18T16:20:05;29.83;;;14.40;;
38089;SDS011;23904;52.322;10.232;2022-12-18T16:22:39;27.88;;;13.93;;
38089;SDS011;23904;52.322;10.232;2022-12-18T16:25:08;29.10;;;14.05;;
38089;SDS011;23904;52.322;10.232;2022-12-18T16:27:46;23.08;;;13.00;;
38089;SDS011;23904;52.322;10.232;2022-12-18T16:30:12;29.48;;;14.15;;
38089;SDS011;23904;52.322;10.232;2022-12-18T16:32:41;27.55;;;14.02;;
38089;SDS011;23904;52.322;10.232;2022-12-18T16:35:08;33.15;;;13.82;;
38089;SDS011;23904;52.322;10.232;2022-12-18T16:37:39;30.75;;;15.02;;
38089;SDS011;23904;52.322;10.232;2022-12-18T16:40:07;29.00;;;13.90;;
38089;SDS011;23904;52.322;10.232;2022-12-18T16:42:36;30.98;;;15.38;;
38089;SDS011;23904;52.322;10.232;2022-12-18T16:45:03;27.38;;;14.27;;